Time;durP1;ratioP1;P1;durP2;ratioP2;P2;SDS_P1;SDS_P2;PMS_P1;PMS_P2;Temp;Humidity;BMP_temperature;BMP_pressure;BME280_temperature;BME280_humidity;BME280_pressure;Samples;Min_cycle;Max_cycle;Signal;HPM_P1;HPM_P2
2022/04/09 00:02:22;;;;;;;5.45;1.90;;;;;;;;;;6135475;23;20024;-86
2022/04/09 00:04:49;;;;;;;6.43;2.15;;;;;;;;;;6136590;23;20108;-84
2022/04/09 00:07:15;;;;;;;3.47;1.88;;;;;;;;;;6136464;23;20027;-87
2022/04/09 00:09:41;;;;;;;5.18;2.08;;;;;;;;;;6160933;23;20040;-94
2022/04/09 00:12:08;;;;;;;8.88;2.67;;;;;;;;;;6136835;23;20504;-89
2022/04/09 00:14:34;;;;;;;9.15;2.20;;;;;;;;;;6136278;23;20067;-89
2022/04/09 00:17:00;;;;;;;6.47;2.15;;;;;;;;;;6161289;23;20032;-91
2022/04/09 00:19:26;;;;;;;6.65;2.63;;;;;;;;;;6161081;23;20017;-90
2022/04/09 00:21:52;;;;;;;8.20;2.67;;;;;;;;;;6161129;23;20021;-87
2022/04/09 00:24:18;;;;;;;6.68;1.98;;;;;;;;;;6136622;23;20025;-87
2022/04/09 00:26:44;;;;;;;4.32;2.08;;;;;;;;;;6161218;23;20073;-89
2022/04/09 00:29:10;;;;;;;7.20;1.67;;;;;;;;;;6161851;23;20561;-91
2022/04/09 00:31:36;;;;;;;12.70;1.98;;;;;;;;;;6161594;23;20013;-92
2022/04/09 00:34:05;;;;;;;4.35;1.88;;;;;;;;;;6136595;23;20092;-92
2022/04/09 00:36:31;;;;;;;3.20;1.05;;;;;;;;;;6136171;23;20345;-85
2022/04/09 00:38:57;;;;;;;3.13;1.10;;;;;;;;;;6136789;23;20009;-94
2022/04/09 00:41:23;;;;;;;1.30;0.98;;;;;;;;;;6138379;23;20025;-92
2022/04/09 00:43:49;;;;;;;1.33;1.17;;;;;;;;;;6137054;23;20024;-94
2022/04/09 00:46:15;;;;;;;2.67;1.10;;;;;;;;;;6138501;23;20104;-94
2022/04/09 00:48:42;;;;;;;6.28;1.55;;;;;;;;;;6136617;23;20017;-87
2022/04/09 00:51:09;;;;;;;4.72;1.40;;;;;;;;;;6137033;23;20017;-90
2022/04/09 00:53:35;;;;;;;6.75;1.80;;;;;;;;;;6136593;23;20021;-89
2022/04/09 00:56:20;;;;;;;4.15;2.00;;;;;;;;;;6136498;23;20017;-89
2022/04/09 00:58:54;;;;;;;3.65;1.55;;;;;;;;;;6161381;23;20017;-90
2022/04/09 01:01:21;;;;;;;5.47;1.65;;;;;;;;;;6161154;23;20020;-88
2022/04/09 01:03:47;;;;;;;8.25;1.40;;;;;;;;;;6136741;23;20017;-90
2022/04/09 01:06:13;;;;;;;4.20;1.73;;;;;;;;;;6136554;23;20014;-89
2022/04/09 01:08:39;;;;;;;6.03;2.17;;;;;;;;;;6160761;23;20060;-89
2022/04/09 01:11:05;;;;;;;6.65;1.63;;;;;;;;;;6137023;23;20017;-89
2022/04/09 01:13:31;;;;;;;4.10;1.92;;;;;;;;;;6161353;23;20021;-90
2022/04/09 01:15:57;;;;;;;7.30;2.42;;;;;;;;;;6161379;23;20406;-89
2022/04/09 01:18:23;;;;;;;8.20;2.28;;;;;;;;;;6135727;23;20453;-88
2022/04/09 01:20:56;;;;;;;6.50;2.45;;;;;;;;;;6136592;23;20027;-87
2022/04/09 01:23:23;;;;;;;6.18;1.50;;;;;;;;;;6135556;23;20017;-89
2022/04/09 01:25:49;;;;;;;6.18;2.20;;;;;;;;;;6135483;23;20355;-87
2022/04/09 01:28:15;;;;;;;4.15;1.67;;;;;;;;;;6160865;23;20513;-87
2022/04/09 01:30:41;;;;;;;4.65;2.10;;;;;;;;;;6136164;23;20044;-88
2022/04/09 01:33:07;;;;;;;8.25;2.80;;;;;;;;;;6161033;23;20033;-88
2022/04/09 01:35:33;;;;;;;6.30;2.08;;;;;;;;;;6136277;23;20354;-87
2022/04/09 01:37:59;;;;;;;6.90;2.38;;;;;;;;;;6136012;23;20048;-89
2022/04/09 01:40:25;;;;;;;8.20;1.98;;;;;;;;;;6160526;23;20021;-88
2022/04/09 01:42:51;;;;;;;14.32;2.30;;;;;;;;;;6135533;23;20019;-88
2022/04/09 01:45:18;;;;;;;2.58;1.55;;;;;;;;;;6135717;23;20027;-87
2022/04/09 01:47:44;;;;;;;7.65;2.05;;;;;;;;;;6135676;23;20324;-90
2022/04/09 01:50:11;;;;;;;8.05;3.40;;;;;;;;;;6161751;23;20028;-92
2022/04/09 01:52:37;;;;;;;11.50;2.50;;;;;;;;;;6137514;23;20071;-92
2022/04/09 01:55:03;;;;;;;9.43;2.30;;;;;;;;;;6137043;23;20021;-91
2022/04/09 01:57:29;;;;;;;8.25;3.05;;;;;;;;;;6137191;23;20096;-92
2022/04/09 01:59:55;;;;;;;8.27;2.17;;;;;;;;;;6136395;23;20017;-96
2022/04/09 02:02:21;;;;;;;10.18;2.83;;;;;;;;;;6136909;23;20055;-94
2022/04/09 02:04:47;;;;;;;5.60;2.60;;;;;;;;;;6136805;23;20013;-90
2022/04/09 02:07:14;;;;;;;14.45;2.35;;;;;;;;;;6135832;23;20021;-92
2022/04/09 02:09:40;;;;;;;5.90;2.17;;;;;;;;;;6185876;23;20095;-95
2022/04/09 02:12:06;;;;;;;5.32;1.85;;;;;;;;;;6161419;23;20074;-93
2022/04/09 02:14:32;;;;;;;4.53;2.40;;;;;;;;;;6136476;23;20059;-93
2022/04/09 02:16:58;;;;;;;6.32;2.15;;;;;;;;;;6137388;23;20048;-91
2022/04/09 02:19:24;;;;;;;10.85;2.22;;;;;;;;;;6161693;23;20017;-96
2022/04/09 02:21:51;;;;;;;8.23;1.92;;;;;;;;;;6187994;23;20017;-96
2022/04/09 02:24:17;;;;;;;10.35;2.17;;;;;;;;;;6137527;23;20073;-90
2022/04/09 02:26:43;;;;;;;12.88;2.33;;;;;;;;;;6137334;23;20017;-95
2022/04/09 02:29:10;;;;;;;6.15;2.10;;;;;;;;;;6137305;23;20025;-96
2022/04/09 02:31:36;;;;;;;13.98;2.95;;;;;;;;;;6187981;23;20443;-94
2022/04/09 02:34:04;;;;;;;9.73;3.03;;;;;;;;;;6188217;23;20028;-91
2022/04/09 02:36:32;;;;;;;10.27;1.90;;;;;;;;;;6161838;23;20012;-95
2022/04/09 02:38:58;;;;;;;6.85;2.63;;;;;;;;;;6161863;23;20025;-96
2022/04/09 02:41:24;;;;;;;9.68;2.00;;;;;;;;;;6137728;23;20013;-95
2022/04/09 02:43:50;;;;;;;6.93;2.08;;;;;;;;;;6138595;23;20386;-84
2022/04/09 02:46:17;;;;;;;9.43;2.22;;;;;;;;;;6190082;23;20087;-95
2022/04/09 02:48:44;;;;;;;8.40;2.10;;;;;;;;;;6163701;23;20338;-93
2022/04/09 02:51:12;;;;;;;8.48;2.17;;;;;;;;;;6139591;23;20017;-96
2022/04/09 02:53:38;;;;;;;8.55;2.30;;;;;;;;;;6188828;23;20020;-91
2022/04/09 02:56:04;;;;;;;6.20;1.98;;;;;;;;;;6189675;23;20048;-84
2022/04/09 02:58:30;;;;;;;5.97;1.75;;;;;;;;;;6137169;23;20442;-90
2022/04/09 03:00:56;;;;;;;2.47;1.15;;;;;;;;;;6144812;23;20021;-87
2022/04/09 03:03:22;;;;;;;6.15;1.38;;;;;;;;;;6171221;23;20073;-93
2022/04/09 03:05:49;;;;;;;4.10;1.65;;;;;;;;;;6170782;23;20021;-93
2022/04/09 03:08:15;;;;;;;5.00;1.23;;;;;;;;;;6170311;23;20044;-96
2022/04/09 03:10:41;;;;;;;9.90;2.38;;;;;;;;;;6145837;23;20451;-91
2022/04/09 03:13:07;;;;;;;7.72;1.83;;;;;;;;;;6144251;23;20024;-93
2022/04/09 03:15:33;;;;;;;7.00;2.13;;;;;;;;;;6143982;23;20040;-91
2022/04/09 03:17:59;;;;;;;7.97;1.80;;;;;;;;;;6168304;23;20068;-92
2022/04/09 03:20:25;;;;;;;5.32;2.10;;;;;;;;;;6143473;23;20017;-90
2022/04/09 03:22:51;;;;;;;5.88;1.98;;;;;;;;;;6141625;23;20358;-90
2022/04/09 03:25:18;;;;;;;12.35;1.98;;;;;;;;;;6141578;23;20017;-94
2022/04/09 03:27:44;;;;;;;4.13;1.98;;;;;;;;;;6141777;23;20472;-94
2022/04/09 03:30:10;;;;;;;15.48;2.08;;;;;;;;;;6166422;23;20013;-93
2022/04/09 03:32:37;;;;;;;11.23;2.67;;;;;;;;;;6166375;23;20126;-94
2022/04/09 03:35:04;;;;;;;14.07;3.03;;;;;;;;;;6143363;23;20036;-93
2022/04/09 03:37:30;;;;;;;9.82;2.10;;;;;;;;;;6168310;23;20340;-94
2022/04/09 03:39:56;;;;;;;12.27;2.60;;;;;;;;;;6142966;23;20073;-93
2022/04/09 03:42:22;;;;;;;17.90;2.13;;;;;;;;;;6166866;23;20024;-86
2022/04/09 03:44:48;;;;;;;5.90;2.42;;;;;;;;;;6143798;23;20017;-94
2022/04/09 03:47:14;;;;;;;6.90;1.67;;;;;;;;;;6168209;23;20391;-95
2022/04/09 03:49:40;;;;;;;5.28;1.70;;;;;;;;;;6168063;23;20025;-94
2022/04/09 03:52:06;;;;;;;13.98;2.05;;;;;;;;;;6168074;23;20025;-93
2022/04/09 03:54:35;;;;;;;7.00;1.45;;;;;;;;;;6139613;23;20024;-92
2022/04/09 03:57:03;;;;;;;13.20;2.10;;;;;;;;;;6163356;23;20021;-91
2022/04/09 03:59:29;;;;;;;5.18;1.60;;;;;;;;;;6163357;23;20028;-90
2022/04/09 04:01:55;;;;;;;7.78;1.50;;;;;;;;;;6160902;23;20021;-87
2022/04/09 04:04:21;;;;;;;4.80;1.35;;;;;;;;;;6136239;23;20014;-85
2022/04/09 04:06:48;;;;;;;20.27;2.33;;;;;;;;;;6137479;23;20024;-91
2022/04/09 04:09:16;;;;;;;5.32;1.30;;;;;;;;;;6137182;23;20014;-89
2022/04/09 04:11:43;;;;;;;5.28;1.50;;;;;;;;;;6136365;23;20029;-89
2022/04/09 04:14:10;;;;;;;7.70;1.58;;;;;;;;;;6136565;23;20021;-90
2022/04/09 04:16:36;;;;;;;5.05;1.48;;;;;;;;;;6137350;23;20458;-89
2022/04/09 04:19:02;;;;;;;9.88;2.38;;;;;;;;;;6136716;23;20017;-86
2022/04/09 04:21:28;;;;;;;2.85;1.67;;;;;;;;;;6137588;23;20017;-90
2022/04/09 04:23:54;;;;;;;6.07;1.90;;;;;;;;;;6161855;23;20017;-91
2022/04/09 04:26:20;;;;;;;4.85;1.90;;;;;;;;;;6136671;23;20023;-92
2022/04/09 04:28:51;;;;;;;5.72;1.70;;;;;;;;;;6161605;23;20067;-88
2022/04/09 04:31:20;;;;;;;6.70;1.75;;;;;;;;;;6162609;23;20331;-89
2022/04/09 04:33:46;;;;;;;18.20;2.10;;;;;;;;;;6137343;23;20426;-92
2022/04/09 04:36:12;;;;;;;7.88;1.83;;;;;;;;;;6137598;23;20043;-89
2022/04/09 04:38:38;;;;;;;8.85;2.35;;;;;;;;;;6137524;23;20025;-93
2022/04/09 04:41:05;;;;;;;6.80;1.65;;;;;;;;;;6140662;23;20021;-89
2022/04/09 04:43:31;;;;;;;6.00;1.80;;;;;;;;;;6141117;23;20013;-87
2022/04/09 04:45:57;;;;;;;5.47;1.75;;;;;;;;;;6143053;23;20072;-92
2022/04/09 04:48:23;;;;;;;15.90;2.40;;;;;;;;;;6142216;23;20025;-93
2022/04/09 04:50:49;;;;;;;4.97;1.65;;;;;;;;;;6140744;23;20087;-91
2022/04/09 04:53:15;;;;;;;3.13;1.80;;;;;;;;;;6141479;23;20025;-91
2022/04/09 04:55:41;;;;;;;12.25;2.97;;;;;;;;;;6166130;23;20013;-91
2022/04/09 04:58:08;;;;;;;11.60;2.80;;;;;;;;;;6141421;23;20048;-95
2022/04/09 05:00:37;;;;;;;9.13;2.28;;;;;;;;;;6166915;23;20017;-92
2022/04/09 05:03:03;;;;;;;7.35;2.10;;;;;;;;;;6141993;23;20017;-89
2022/04/09 05:05:29;;;;;;;8.02;1.75;;;;;;;;;;6140946;23;20021;-89
2022/04/09 05:07:55;;;;;;;5.72;1.85;;;;;;;;;;6164292;23;20017;-91
2022/04/09 05:10:22;;;;;;;4.57;1.70;;;;;;;;;;6139792;23;20021;-86
2022/04/09 05:12:49;;;;;;;7.78;1.73;;;;;;;;;;6165225;23;20017;-94
2022/04/09 05:15:15;;;;;;;8.30;1.80;;;;;;;;;;6166484;23;20017;-95
2022/04/09 05:17:42;;;;;;;5.68;2.13;;;;;;;;;;6141964;23;20559;-94
2022/04/09 05:20:09;;;;;;;8.82;2.15;;;;;;;;;;6166311;23;20351;-91
2022/04/09 05:22:43;;;;;;;8.13;2.10;;;;;;;;;;6141630;23;20017;-93
2022/04/09 05:25:10;;;;;;;10.63;2.20;;;;;;;;;;6141754;23;20027;-86
2022/04/09 05:27:36;;;;;;;7.88;1.52;;;;;;;;;;6140151;23;20017;-91
2022/04/09 05:30:03;;;;;;;14.95;1.73;;;;;;;;;;6166382;23;20439;-94
2022/04/09 05:32:29;;;;;;;8.23;2.15;;;;;;;;;;6165085;23;20028;-91
2022/04/09 05:34:55;;;;;;;6.35;1.90;;;;;;;;;;6164463;23;20041;-90
2022/04/09 05:37:21;;;;;;;7.05;2.40;;;;;;;;;;6163946;23;20350;-91
2022/04/09 05:39:47;;;;;;;4.47;2.13;;;;;;;;;;6136742;23;20152;-90
2022/04/09 05:42:13;;;;;;;5.22;1.88;;;;;;;;;;6136657;23;20027;-91
2022/04/09 05:44:39;;;;;;;3.97;1.75;;;;;;;;;;6136019;23;20017;-90
2022/04/09 05:47:06;;;;;;;9.40;2.03;;;;;;;;;;6137028;23;20016;-91
2022/04/09 05:49:32;;;;;;;7.80;2.60;;;;;;;;;;6161651;23;20013;-91
2022/04/09 05:51:58;;;;;;;13.85;2.65;;;;;;;;;;6136165;23;20020;-91
2022/04/09 05:54:25;;;;;;;10.35;2.47;;;;;;;;;;6135817;23;20023;-92
2022/04/09 05:56:51;;;;;;;14.35;3.38;;;;;;;;;;6136552;23;20019;-88
2022/04/09 05:59:18;;;;;;;8.75;2.53;;;;;;;;;;6136375;23;20100;-93
2022/04/09 06:01:45;;;;;;;9.60;2.38;;;;;;;;;;6136601;23;20013;-91
2022/04/09 06:04:12;;;;;;;8.50;2.42;;;;;;;;;;6137349;23;20021;-91
2022/04/09 06:06:38;;;;;;;11.93;2.45;;;;;;;;;;6135892;23;20048;-93
2022/04/09 06:09:04;;;;;;;21.08;2.97;;;;;;;;;;6137012;23;20051;-87
2022/04/09 06:11:31;;;;;;;15.82;4.38;;;;;;;;;;6136565;23;20028;-88
2022/04/09 06:13:57;;;;;;;11.05;2.55;;;;;;;;;;6161018;23;20058;-90
2022/04/09 06:16:23;;;;;;;14.80;2.95;;;;;;;;;;6162059;23;20017;-85
2022/04/09 06:18:49;;;;;;;6.68;2.17;;;;;;;;;;6163447;23;20021;-89
2022/04/09 06:21:15;;;;;;;26.90;2.95;;;;;;;;;;6164782;23;20023;-90
2022/04/09 06:23:41;;;;;;;11.95;2.38;;;;;;;;;;6145637;23;20021;-90
2022/04/09 06:26:08;;;;;;;10.25;3.08;;;;;;;;;;6168743;23;20453;-91
2022/04/09 06:28:34;;;;;;;7.60;2.38;;;;;;;;;;6168109;23;20017;-88
2022/04/09 06:31:00;;;;;;;9.25;2.47;;;;;;;;;;6168699;23;20374;-90
2022/04/09 06:33:26;;;;;;;8.35;2.90;;;;;;;;;;6142849;23;20021;-90
2022/04/09 06:35:55;;;;;;;7.82;2.30;;;;;;;;;;6191241;23;20020;-89
2022/04/09 06:38:21;;;;;;;8.73;2.13;;;;;;;;;;6165296;23;20020;-88
2022/04/09 06:40:47;;;;;;;7.88;1.85;;;;;;;;;;6140660;23;20045;-90
2022/04/09 06:43:13;;;;;;;11.30;1.95;;;;;;;;;;6164654;23;20023;-89
2022/04/09 06:45:39;;;;;;;7.07;2.00;;;;;;;;;;6163585;23;20032;-85
2022/04/09 06:48:08;;;;;;;9.55;1.70;;;;;;;;;;6139072;23;20079;-87
2022/04/09 06:50:35;;;;;;;6.60;1.75;;;;;;;;;;6139491;23;20013;-89
2022/04/09 06:53:01;;;;;;;7.32;1.67;;;;;;;;;;6140147;23;20028;-87
2022/04/09 06:55:27;;;;;;;16.42;1.98;;;;;;;;;;6164440;23;20021;-89
2022/04/09 06:57:59;;;;;;;15.15;2.08;;;;;;;;;;6138621;23;20104;-87
2022/04/09 07:00:25;;;;;;;3.08;1.70;;;;;;;;;;6139216;23;20017;-86
2022/04/09 07:02:51;;;;;;;3.03;1.20;;;;;;;;;;6139183;23;20056;-87
2022/04/09 07:05:17;;;;;;;3.65;1.60;;;;;;;;;;6137251;23;20013;-86
2022/04/09 07:07:48;;;;;;;8.52;1.85;;;;;;;;;;6135055;23;20027;-85
2022/04/09 07:10:15;;;;;;;1.75;1.20;;;;;;;;;;6135663;23;20017;-86
2022/04/09 07:12:41;;;;;;;12.23;2.00;;;;;;;;;;6135458;23;20096;-86
2022/04/09 07:15:07;;;;;;;4.88;1.70;;;;;;;;;;6136168;23;20021;-86
2022/04/09 07:17:33;;;;;;;10.10;1.77;;;;;;;;;;6136016;23;20465;-85
2022/04/09 07:20:00;;;;;;;11.80;2.25;;;;;;;;;;6136301;23;20025;-84
2022/04/09 07:22:26;;;;;;;4.40;2.10;;;;;;;;;;6136581;23;20463;-85
2022/04/09 07:24:53;;;;;;;8.18;1.60;;;;;;;;;;6135957;23;20017;-85
2022/04/09 07:27:20;;;;;;;3.85;1.20;;;;;;;;;;6137785;23;20024;-93
2022/04/09 07:29:46;;;;;;;9.77;2.00;;;;;;;;;;6137443;23;20016;-91
2022/04/09 07:32:12;;;;;;;10.90;2.90;;;;;;;;;;6136966;23;20021;-92
2022/04/09 07:34:38;;;;;;;5.72;2.25;;;;;;;;;;6137529;23;20196;-90
2022/04/09 07:37:05;;;;;;;13.40;2.50;;;;;;;;;;6163718;23;20023;-93
2022/04/09 07:39:31;;;;;;;8.98;2.05;;;;;;;;;;6163199;23;20017;-96
2022/04/09 07:41:57;;;;;;;7.03;1.73;;;;;;;;;;6138627;23;20025;-93
2022/04/09 07:44:23;;;;;;;16.40;3.30;;;;;;;;;;6162852;23;20028;-94
2022/04/09 07:46:50;;;;;;;5.10;2.15;;;;;;;;;;6138181;23;20020;-93
2022/04/09 07:49:16;;;;;;;9.63;2.55;;;;;;;;;;6162277;23;20354;-90
2022/04/09 07:51:42;;;;;;;10.88;2.53;;;;;;;;;;6189671;23;20028;-95
2022/04/09 07:54:08;;;;;;;10.23;1.55;;;;;;;;;;6188844;23;20017;-85
2022/04/09 07:56:34;;;;;;;9.18;1.98;;;;;;;;;;6161175;23;20017;-83
2022/04/09 07:59:00;;;;;;;6.13;1.90;;;;;;;;;;6160982;23;20032;-86
2022/04/09 08:01:27;;;;;;;9.27;2.22;;;;;;;;;;6160483;23;20021;-87
2022/04/09 08:03:54;;;;;;;4.13;2.05;;;;;;;;;;6160264;23;20017;-85
2022/04/09 08:06:20;;;;;;;6.93;2.10;;;;;;;;;;6135476;23;20021;-86
2022/04/09 08:08:46;;;;;;;2.20;1.38;;;;;;;;;;6135245;23;20088;-86
2022/04/09 08:11:12;;;;;;;5.38;2.08;;;;;;;;;;6136727;23;20470;-86
2022/04/09 08:13:39;;;;;;;10.88;2.45;;;;;;;;;;6160940;23;20390;-86
2022/04/09 08:16:05;;;;;;;5.20;2.10;;;;;;;;;;6135695;23;20021;-86
2022/04/09 08:18:31;;;;;;;11.30;1.70;;;;;;;;;;6135277;23;20017;-87
2022/04/09 08:20:57;;;;;;;6.80;2.15;;;;;;;;;;6135495;23;20021;-88
2022/04/09 08:23:23;;;;;;;14.40;2.38;;;;;;;;;;6135306;23;20028;-86
2022/04/09 08:25:49;;;;;;;6.85;1.42;;;;;;;;;;6159711;23;20016;-86
2022/04/09 08:28:17;;;;;;;12.85;2.80;;;;;;;;;;6134779;23;20021;-88
2022/04/09 08:30:43;;;;;;;12.48;2.05;;;;;;;;;;6134414;23;20024;-89
2022/04/09 08:33:10;;;;;;;7.28;1.73;;;;;;;;;;6160002;23;20032;-86
2022/04/09 08:35:36;;;;;;;9.00;1.95;;;;;;;;;;6161706;23;20017;-88
2022/04/09 08:38:03;;;;;;;5.10;2.38;;;;;;;;;;6187654;23;20024;-92
2022/04/09 08:40:31;;;;;;;18.77;3.42;;;;;;;;;;6136931;23;20108;-93
2022/04/09 08:42:58;;;;;;;6.80;1.80;;;;;;;;;;6165171;23;20092;-94
2022/04/09 08:45:25;;;;;;;5.18;1.80;;;;;;;;;;6166071;23;20323;-87
2022/04/09 08:47:51;;;;;;;5.30;1.42;;;;;;;;;;6169074;23;20021;-87
2022/04/09 08:50:19;;;;;;;4.30;1.77;;;;;;;;;;6166816;23;20087;-87
2022/04/09 08:52:46;;;;;;;5.50;2.10;;;;;;;;;;6169685;23;20021;-86
2022/04/09 08:55:13;;;;;;;4.43;1.65;;;;;;;;;;6194801;23;20017;-90
2022/04/09 08:57:40;;;;;;;4.47;1.67;;;;;;;;;;6139491;23;20024;-91
2022/04/09 09:00:13;;;;;;;2.05;1.05;;;;;;;;;;6138166;23;20048;-90
2022/04/09 09:02:53;;;;;;;1.98;1.00;;;;;;;;;;6189547;23;20359;-89
2022/04/09 09:05:39;;;;;;;4.80;1.88;;;;;;;;;;6142168;23;20033;-87
2022/04/09 09:08:06;;;;;;;12.60;1.55;;;;;;;;;;6161782;23;20024;-90
2022/04/09 09:10:34;;;;;;;4.80;1.52;;;;;;;;;;6137613;23;20032;-89
2022/04/09 09:13:03;;;;;;;7.72;1.20;;;;;;;;;;6161079;23;20339;-92
2022/04/09 09:15:30;;;;;;;2.67;1.02;;;;;;;;;;6161316;23;20021;-88
2022/04/09 09:17:59;;;;;;;8.75;2.42;;;;;;;;;;6137328;23;20534;-87
2022/04/09 09:20:25;;;;;;;6.88;1.17;;;;;;;;;;6135804;23;20040;-86
2022/04/09 09:22:52;;;;;;;5.22;1.70;;;;;;;;;;6160784;23;20017;-86
2022/04/09 09:25:18;;;;;;;9.82;1.55;;;;;;;;;;6136127;23;20343;-89
2022/04/09 09:27:44;;;;;;;7.10;1.80;;;;;;;;;;6135566;23;20346;-88
2022/04/09 09:30:12;;;;;;;6.40;2.03;;;;;;;;;;6135410;23;20017;-85
2022/04/09 09:32:41;;;;;;;5.03;2.15;;;;;;;;;;6135695;23;20052;-87
2022/04/09 09:35:09;;;;;;;8.18;2.38;;;;;;;;;;6159967;23;20021;-85
2022/04/09 09:37:35;;;;;;;4.75;1.23;;;;;;;;;;6160445;23;20071;-85
2022/04/09 09:40:02;;;;;;;1.73;1.20;;;;;;;;;;6160795;23;20017;-86
2022/04/09 09:42:28;;;;;;;2.60;0.75;;;;;;;;;;6134918;23;20073;-86
2022/04/09 09:44:54;;;;;;;1.92;0.90;;;;;;;;;;6160762;23;20056;-84
2022/04/09 09:47:21;;;;;;;1.58;0.85;;;;;;;;;;6187394;23;20017;-86
2022/04/09 09:49:53;;;;;;;0.68;0.68;;;;;;;;;;6135960;23;20013;-85
2022/04/09 09:52:27;;;;;;;0.60;0.50;;;;;;;;;;6159852;23;20017;-85
2022/04/09 09:54:57;;;;;;;0.65;0.60;;;;;;;;;;6136164;23;20020;-85
2022/04/09 09:57:27;;;;;;;0.77;0.77;;;;;;;;;;6136147;23;20017;-86
2022/04/09 09:59:58;;;;;;;3.00;0.75;;;;;;;;;;6135965;23;20416;-86
2022/04/09 10:02:25;;;;;;;1.00;0.95;;;;;;;;;;6159896;23;20019;-85
2022/04/09 10:04:52;;;;;;;1.00;0.60;;;;;;;;;;6186516;23;20023;-86
2022/04/09 10:07:18;;;;;;;1.60;0.85;;;;;;;;;;6186267;23;20048;-84
2022/04/09 10:09:45;;;;;;;3.10;0.73;;;;;;;;;;6160235;23;20028;-87
2022/04/09 10:12:15;;;;;;;3.38;0.93;;;;;;;;;;6136755;23;20148;-85
2022/04/09 10:14:42;;;;;;;5.10;1.17;;;;;;;;;;6159965;23;20028;-86
2022/04/09 10:17:09;;;;;;;3.83;1.23;;;;;;;;;;6159692;23;20519;-86
2022/04/09 10:19:43;;;;;;;6.03;1.25;;;;;;;;;;6160389;23;20023;-86
2022/04/09 10:22:11;;;;;;;2.67;1.83;;;;;;;;;;6135909;23;20025;-85
2022/04/09 10:24:37;;;;;;;8.70;1.48;;;;;;;;;;6161186;23;20043;-84
2022/04/09 10:27:06;;;;;;;7.93;1.48;;;;;;;;;;6187438;23;20021;-86
2022/04/09 10:29:49;;;;;;;2.20;1.02;;;;;;;;;;6161712;23;20474;-88
2022/04/09 10:32:43;;;;;;;8.27;1.35;;;7.50;99.90;;;;;;6161761;23;20023;-85
2022/04/09 10:35:38;;;;;;;1.70;1.10;;;7.30;99.90;;;;;;6160675;23;20017;-86
2022/04/09 10:38:07;;;;;;;2.05;0.98;;;;;;;;;;6158670;23;20028;-85
2022/04/09 10:41:00;;;;;;;6.68;0.95;;;;;;;;;;6159744;23;20024;-86
2022/04/09 10:43:26;;;;;;;11.30;1.75;;;;;;;;;;6113544;23;20096;-87
2022/04/09 10:46:15;;;;;;;2.08;1.10;;;;;;;;;;6135497;23;20028;-84
2022/04/09 10:48:44;;;;;;;5.28;1.38;;;;;;;;;;6159554;23;20021;-86
2022/04/09 10:51:14;;;;;;;3.97;1.23;;;;;;;;;;6159365;23;20013;-88
2022/04/09 10:53:41;;;;;;;6.05;1.10;;;;;;;;;;6185750;23;20028;-84
2022/04/09 10:56:29;;;;;;;3.17;1.42;;;;;;;;;;6136273;23;20062;-83
2022/04/09 10:59:01;;;;;;;3.15;1.83;;;;;;;;;;6135836;23;20017;-84
2022/04/09 11:01:46;;;;;;;3.63;1.50;;;;;;;;;;6135573;23;20068;-83
2022/04/09 11:04:36;;;;;;;8.27;1.40;;;;;;;;;;6188072;23;20021;-87
2022/04/09 11:07:02;;;;;;;8.90;1.52;;;;;;;;;;6163224;23;20052;-83
2022/04/09 11:09:50;;;;;;;7.30;1.98;;;;;;;;;;6137901;23;20455;-86
2022/04/09 11:12:19;;;;;;;8.98;1.45;;;;;;;;;;6161161;23;20017;-83
2022/04/09 11:14:56;;;;;;;5.55;1.60;;;;;;;;;;6188256;23;20010;-83
2022/04/09 11:17:28;;;;;;;3.78;1.35;;;;;;;;;;6162456;23;20350;-84
2022/04/09 11:19:55;;;;;;;1.75;1.05;;;;;;;;;;6163584;23;20021;-87
2022/04/09 11:22:21;;;;;;;3.85;1.90;;;;;;;;;;6162494;23;20023;-89
2022/04/09 11:24:48;;;;;;;9.77;1.58;;;;;;;;;;6190313;23;20021;-87
2022/04/09 11:27:14;;;;;;;5.10;1.25;;;;;;;;;;6164155;23;20443;-86
2022/04/09 11:29:41;;;;;;;6.35;1.15;;;;;;;;;;6139711;23;20072;-89
2022/04/09 11:32:08;;;;;;;12.23;2.38;;;;;;;;;;6137531;23;20032;-83
2022/04/09 11:34:47;;;;;;;6.90;1.52;;;;;;;;;;6163105;23;20024;-84
2022/04/09 11:37:13;;;;;;;6.63;2.05;;;;;;;;;;6139835;23;20039;-86
2022/04/09 11:39:43;;;;;;;10.85;1.80;;;;;;;;;;6139535;23;20032;-89
2022/04/09 11:42:10;;;;;;;4.35;1.00;;;;;;;;;;6140043;23;20529;-88
2022/04/09 11:44:38;;;;;;;4.03;1.75;;;;;;;;;;6144792;23;20453;-84
2022/04/09 11:47:12;;;;;;;5.18;1.52;;;;;;;;;;6146655;23;20040;-85
2022/04/09 11:49:38;;;;;;;2.83;1.23;;;;;;;;;;6146365;23;20021;-85
2022/04/09 11:52:09;;;;;;;7.22;1.75;;;;;;;;;;6171480;23;20020;-84
2022/04/09 11:54:38;;;;;;;0.55;0.55;;;;;;;;;;6168823;23;20389;-87
2022/04/09 11:57:08;;;;;;;0.60;0.60;;;;;;;;;;6167201;23;20013;-88
2022/04/09 11:59:34;;;;;;;1.92;0.80;;;;;;;;;;6194142;23;20068;-84
2022/04/09 12:02:00;;;;;;;5.88;1.17;;;;;;;;;;6169909;23;20024;-91
2022/04/09 12:04:34;;;;;;;4.18;1.10;;;;;;;;;;6168272;23;20116;-89
2022/04/09 12:07:01;;;;;;;3.22;0.75;;;;;;;;;;6165209;23;20103;-85
2022/04/09 12:09:28;;;;;;;3.15;0.98;;;;;;;;;;6189650;23;20049;-91
2022/04/09 12:11:54;;;;;;;2.30;1.13;;;;;;;;;;6140560;23;20021;-86
2022/04/09 12:14:24;;;;;;;1.70;1.00;;;;;;;;;;6163584;23;20017;-86
2022/04/09 12:16:50;;;;;;;5.72;1.00;;;;;;;;;;6162025;23;20017;-85
2022/04/09 12:19:17;;;;;;;2.15;1.02;;;;;;;;;;6163192;23;20016;-86
2022/04/09 12:21:43;;;;;;;1.60;1.08;;;;;;;;;;6162810;23;20021;-84
2022/04/09 12:24:10;;;;;;;3.88;1.23;;;;;;;;;;6162283;23;20021;-84
2022/04/09 12:26:43;;;;;;;3.30;1.25;;;;;;;;;;6162939;23;20021;-89
2022/04/09 12:29:23;;;;;;;7.88;1.45;;;;;;;;;;6186626;23;20147;-84
2022/04/09 12:31:51;;;;;;;4.80;2.55;;;;;;;;;;6154532;23;20525;-84
2022/04/09 12:34:17;;;;;;;4.78;1.65;;;;;;;;;;6186623;23;20023;-86
2022/04/09 12:37:04;;;;;;;4.82;2.67;;;;;;;;;;6161313;23;20024;-85
2022/04/09 12:39:33;;;;;;;6.80;1.85;;;;;;;;;;6137329;23;20076;-89
2022/04/09 12:41:59;;;;;;;4.68;1.77;;;;;;;;;;6161871;23;20021;-85
2022/04/09 12:44:30;;;;;;;8.40;1.80;;;;;;;;;;6162566;23;20056;-86
2022/04/09 12:46:56;;;;;;;1.23;1.05;;;;;;;;;;6167674;23;20024;-87
2022/04/09 12:49:26;;;;;;;5.63;1.02;;;;;;;;;;6193773;23;20342;-86
2022/04/09 12:51:53;;;;;;;8.70;1.95;;;;;;;;;;6162369;23;20045;-88
2022/04/09 12:54:19;;;;;;;5.32;1.70;;;;;;;;;;6160808;23;20040;-90
2022/04/09 12:56:45;;;;;;;5.18;1.48;;;;;;;;;;6187979;23;20024;-86
2022/04/09 12:59:11;;;;;;;6.55;1.98;;;;;;;;;;6159091;23;20047;-85
2022/04/09 13:01:37;;;;;;;5.88;1.55;;;;;;;;;;6159876;23;20017;-83
2022/04/09 13:04:03;;;;;;;3.88;1.55;;;;;;;;;;6157173;23;20021;-84
2022/04/09 13:06:29;;;;;;;4.85;1.40;;;;;;;;;;6159082;23;20025;-87
2022/04/09 13:08:56;;;;;;;2.65;1.40;;;;;;;;;;6159035;23;20017;-84
2022/04/09 13:11:22;;;;;;;6.13;1.60;;;;;;;;;;6186352;23;20354;-83
2022/04/09 13:13:48;;;;;;;1.55;1.40;;;;;;;;;;6160806;23;20017;-84
2022/04/09 13:16:14;;;;;;;7.03;1.40;;;;;;;;;;6162016;23;20048;-84
2022/04/09 13:18:41;;;;;;;2.22;1.25;;;;;;;;;;6188318;23;20013;-90
2022/04/09 13:21:07;;;;;;;4.47;1.38;;;;;;;;;;6187719;23;20017;-84
2022/04/09 13:23:35;;;;;;;1.95;0.60;;;;;;;;;;6159577;23;20032;-84
2022/04/09 13:26:01;;;;;;;2.78;0.85;;;;;;;;;;6134919;23;20453;-84
2022/04/09 13:28:29;;;;;;;3.15;0.95;;;;;;;;;;6157788;23;20032;-84
2022/04/09 13:30:55;;;;;;;1.52;0.90;;;;;;;;;;6135316;23;20020;-84
2022/04/09 13:33:21;;;;;;;1.50;0.80;;;;;;;;;;6159948;23;20091;-89
2022/04/09 13:35:47;;;;;;;1.38;0.68;;;;;;;;;;6186193;23;20065;-84
2022/04/09 13:38:15;;;;;;;1.23;0.77;;;;;;;;;;6158291;23;20044;-86
2022/04/09 13:40:42;;;;;;;2.33;1.10;;;;;;;;;;6185752;23;20020;-87
2022/04/09 13:43:08;;;;;;;4.88;1.05;;;;;;;;;;6157450;23;20453;-84
2022/04/09 13:45:34;;;;;;;5.88;1.25;;;;;;;;;;6135052;23;20028;-84
2022/04/09 13:48:00;;;;;;;1.15;1.00;;;;;;;;;;6158207;23;20332;-88
2022/04/09 13:50:27;;;;;;;4.45;1.10;;;;;;;;;;6158906;23;20025;-85
2022/04/09 13:52:53;;;;;;;7.22;1.90;;;;;;;;;;6158614;23;20067;-84
2022/04/09 13:55:19;;;;;;;3.15;1.23;;;;;;;;;;6159077;23;20032;-84
2022/04/09 13:57:45;;;;;;;6.97;1.23;;;;;;;;;;6159738;23;20025;-86
2022/04/09 14:00:11;;;;;;;5.25;1.15;;;;;;;;;;6135149;23;20030;-86
2022/04/09 14:02:39;;;;;;;3.72;1.48;;;;;;;;;;6135281;23;20027;-85
2022/04/09 14:05:06;;;;;;;8.23;1.20;;;;;;;;;;6134995;23;20442;-84
2022/04/09 14:07:32;;;;;;;7.82;1.42;;;;;;;;;;6134382;23;20017;-84
2022/04/09 14:09:59;;;;;;;3.72;1.48;;;;;;;;;;6133635;23;20088;-84
2022/04/09 14:12:25;;;;;;;3.78;1.20;;;;;;;;;;6134879;23;20450;-86
2022/04/09 14:14:51;;;;;;;11.23;1.98;;;;;;;;;;6133626;23;20036;-85
2022/04/09 14:17:17;;;;;;;10.52;1.73;;;;;;;;;;6184509;23;20025;-86
2022/04/09 14:19:43;;;;;;;4.70;1.10;;;;;;;;;;6185449;23;20088;-86
2022/04/09 14:22:10;;;;;;;2.60;1.02;;;;;;;;;;6158166;23;20031;-86
2022/04/09 14:24:36;;;;;;;3.00;1.05;;;;;;;;;;6159681;23;20020;-85
2022/04/09 14:27:02;;;;;;;11.95;1.58;;;;;;;;;;6133651;23;20385;-86
2022/04/09 14:29:28;;;;;;;4.03;1.02;;;;;;;;;;6134163;23;20021;-88
2022/04/09 14:31:54;;;;;;;2.63;0.82;;;;;;;;;;6159288;23;20017;-87
2022/04/09 14:34:21;;;;;;;3.38;1.08;;;;;;;;;;6159250;23;20017;-89
2022/04/09 14:36:49;;;;;;;5.30;1.38;;;;;;;;;;6134408;23;20029;-87
2022/04/09 14:39:21;;;;;;;5.75;1.30;;;;;;;;;;6161253;23;20075;-86
2022/04/09 14:41:48;;;;;;;7.25;1.63;;;;;;;;;;6162669;23;20446;-87
2022/04/09 14:44:14;;;;;;;7.43;1.50;;;;;;;;;;6137638;23;20090;-86